Time;durP1;ratioP1;P1;durP2;ratioP2;P2;SDS_P1;SDS_P2;PMS_P1;PMS_P2;Temp;Humidity;BMP_temperature;BMP_pressure;BME280_temperature;BME280_humidity;BME280_pressure;Samples;Min_cycle;Max_cycle;Signal;HPM_P1;HPM_P2
2022/04/08 00:02:05;;;;;;;10.30;0.70;;;6.70;99.90;;;;;;4995863;28;20175;-65
2022/04/08 00:04:32;;;;;;;4.77;1.10;;;6.60;99.90;;;;;;4994090;28;20172;-66
2022/04/08 00:06:59;;;;;;;4.73;1.20;;;6.60;99.90;;;;;;4974525;28;20190;-66
2022/04/08 00:09:24;;;;;;;4.90;1.03;;;6.60;99.90;;;;;;4974494;28;20176;-65
2022/04/08 00:11:50;;;;;;;4.10;0.90;;;6.50;99.90;;;;;;4984898;28;20313;-65
2022/04/08 00:14:18;;;;;;;2.73;0.60;;;6.50;99.90;;;;;;4993923;28;20226;-65
2022/04/08 00:16:45;;;;;;;11.90;1.13;;;6.50;99.90;;;;;;4993713;28;20179;-65
2022/04/08 00:19:11;;;;;;;11.43;0.90;;;6.50;99.90;;;;;;4993683;28;20175;-65
2022/04/08 00:21:36;;;;;;;4.67;0.93;;;6.50;99.90;;;;;;4993701;28;20167;-66
2022/04/08 00:24:03;;;;;;;7.87;0.83;;;6.40;99.90;;;;;;4993552;28;20704;-66
2022/04/08 00:26:29;;;;;;;3.87;0.90;;;6.40;99.90;;;;;;4992577;28;20262;-66
2022/04/08 00:28:55;;;;;;;4.77;0.83;;;6.50;99.90;;;;;;4993653;28;20171;-65
2022/04/08 00:31:21;;;;;;;7.67;1.00;;;6.40;99.90;;;;;;4993526;28;20707;-66
2022/04/08 00:33:47;;;;;;;10.50;1.20;;;6.60;99.90;;;;;;4993624;28;20190;-65
2022/04/08 00:36:13;;;;;;;4.53;0.90;;;6.40;99.90;;;;;;4993112;28;20215;-65
2022/04/08 00:38:39;;;;;;;5.90;0.90;;;6.40;99.90;;;;;;4993315;28;20178;-64
2022/04/08 00:41:05;;;;;;;9.63;1.23;;;6.30;99.90;;;;;;4992253;28;20669;-65
2022/04/08 00:43:35;;;;;;;12.83;1.30;;;6.30;99.90;;;;;;4992987;28;20179;-65
2022/04/08 00:46:04;;;;;;;4.53;0.80;;;6.70;99.90;;;;;;4993153;28;20661;-65
2022/04/08 00:48:30;;;;;;;5.47;0.90;;;6.20;99.90;;;;;;4993093;28;20175;-65
2022/04/08 00:50:58;;;;;;;10.23;1.60;;;6.20;99.90;;;;;;4992901;28;20531;-65
2022/04/08 00:53:25;;;;;;;11.93;1.10;;;6.20;99.90;;;;;;4992874;28;20720;-65
2022/04/08 00:55:51;;;;;;;10.20;1.13;;;6.10;99.90;;;;;;4992920;28;20254;-66
2022/04/08 00:58:19;;;;;;;15.90;1.17;;;6.10;99.90;;;;;;4992113;28;20643;-62
2022/04/08 01:00:45;;;;;;;5.07;1.10;;;6.00;99.90;;;;;;4992566;28;20187;-68
2022/04/08 01:03:11;;;;;;;3.60;0.80;;;6.00;99.90;;;;;;4992786;28;20693;-69
2022/04/08 01:05:37;;;;;;;9.53;0.97;;;5.90;99.90;;;;;;4991463;28;20178;-68
2022/04/08 01:08:04;;;;;;;6.13;1.10;;;5.90;99.90;;;;;;4992762;28;20178;-69
2022/04/08 01:10:30;;;;;;;9.33;1.10;;;5.90;99.90;;;;;;4992736;28;20254;-68
2022/04/08 01:12:56;;;;;;;5.43;1.13;;;5.80;99.90;;;;;;4992384;28;20293;-69
2022/04/08 01:15:23;;;;;;;4.03;1.07;;;5.70;99.90;;;;;;4992795;28;20222;-69
2022/04/08 01:17:49;;;;;;;8.53;1.17;;;5.70;99.90;;;;;;4992712;28;20249;-69
2022/04/08 01:20:16;;;;;;;9.57;1.57;;;5.70;99.90;;;;;;4992312;28;20171;-69
2022/04/08 01:22:42;;;;;;;7.30;1.17;;;5.60;99.90;;;;;;4992484;28;20613;-70
2022/04/08 01:25:10;;;;;;;5.03;0.80;;;5.60;99.90;;;;;;4992509;28;20186;-70
2022/04/08 01:27:37;;;;;;;6.20;1.00;;;5.60;99.90;;;;;;4992388;28;20183;-70
2022/04/08 01:30:05;;;;;;;5.27;1.20;;;5.50;99.90;;;;;;4992459;28;20164;-70
2022/04/08 01:32:31;;;;;;;9.13;1.57;;;5.50;99.90;;;;;;4991870;28;20222;-70
2022/04/08 01:34:57;;;;;;;5.03;1.43;;;5.50;99.90;;;;;;4992179;28;20223;-69
2022/04/08 01:37:23;;;;;;;3.77;1.20;;;5.50;99.90;;;;;;4992129;28;20584;-70
2022/04/08 01:39:49;;;;;;;10.23;1.10;;;5.60;99.90;;;;;;4992331;28;20176;-69
2022/04/08 01:42:16;;;;;;;13.43;1.40;;;5.50;99.90;;;;;;4990959;28;20519;-69
2022/04/08 01:44:41;;;;;;;10.53;1.40;;;5.50;99.90;;;;;;4991629;28;20191;-69
2022/04/08 01:47:07;;;;;;;5.43;1.17;;;5.50;99.90;;;;;;4991835;28;20816;-70
2022/04/08 01:49:33;;;;;;;7.27;1.10;;;5.50;99.90;;;;;;4991996;28;20574;-69
2022/04/08 01:51:59;;;;;;;4.57;1.20;;;5.50;99.90;;;;;;4991059;28;20594;-69
2022/04/08 01:54:25;;;;;;;5.00;1.10;;;5.50;99.90;;;;;;4991753;28;20176;-69
2022/04/08 01:56:50;;;;;;;7.83;1.23;;;5.40;99.90;;;;;;4992096;28;20605;-68
2022/04/08 01:59:16;;;;;;;5.93;1.23;;;5.40;99.90;;;;;;4991989;28;20175;-69
2022/04/08 02:01:42;;;;;;;3.77;1.23;;;5.40;99.90;;;;;;4991358;28;20167;-69
2022/04/08 02:04:08;;;;;;;6.47;1.70;;;5.40;99.90;;;;;;4984412;28;20222;-68
2022/04/08 02:06:36;;;;;;;7.77;1.50;;;5.50;99.90;;;;;;4991714;28;20191;-67
2022/04/08 02:09:03;;;;;;;8.80;1.60;;;5.40;99.90;;;;;;4991777;28;20167;-67
2022/04/08 02:11:29;;;;;;;7.97;1.50;;;5.40;99.90;;;;;;4991704;28;20238;-67
2022/04/08 02:13:54;;;;;;;5.27;1.37;;;5.40;99.90;;;;;;4991767;28;20213;-68
2022/04/08 02:16:20;;;;;;;6.13;1.70;;;5.40;99.90;;;;;;4991842;28;20172;-67
2022/04/08 02:18:46;;;;;;;11.90;1.63;;;5.40;99.90;;;;;;4991602;28;20210;-70
2022/04/08 02:21:12;;;;;;;4.80;1.50;;;5.30;99.90;;;;;;4991483;28;20242;-70
2022/04/08 02:23:38;;;;;;;10.13;1.23;;;5.30;99.90;;;;;;4991788;28;20171;-71
2022/04/08 02:26:05;;;;;;;10.10;1.70;;;5.30;99.90;;;;;;4991639;28;20642;-70
2022/04/08 02:28:34;;;;;;;6.53;1.50;;;5.30;99.90;;;;;;4991637;28;20187;-71
2022/04/08 02:31:00;;;;;;;11.00;1.70;;;5.30;99.90;;;;;;4991358;28;20171;-70
2022/04/08 02:33:26;;;;;;;10.23;1.53;;;5.30;99.90;;;;;;4991451;28;20586;-70
2022/04/08 02:35:52;;;;;;;4.90;1.53;;;5.40;99.90;;;;;;4991490;28;20740;-71
2022/04/08 02:38:17;;;;;;;8.20;1.40;;;5.40;99.90;;;;;;4991481;28;20171;-70
2022/04/08 02:40:43;;;;;;;9.20;1.23;;;5.40;99.90;;;;;;4991398;28;20179;-70
2022/04/08 02:43:09;;;;;;;9.87;1.53;;;5.40;99.90;;;;;;4991492;28;20193;-70
2022/04/08 02:45:36;;;;;;;7.40;1.40;;;5.40;99.90;;;;;;4989863;28;20175;-70
2022/04/08 02:48:02;;;;;;;5.70;1.37;;;5.40;99.90;;;;;;4991340;28;20253;-70
2022/04/08 02:50:28;;;;;;;10.43;1.80;;;5.40;99.90;;;;;;4990098;28;20701;-70
2022/04/08 02:52:54;;;;;;;15.47;1.73;;;5.40;99.90;;;;;;4991456;28;20211;-70
2022/04/08 02:55:20;;;;;;;5.10;1.27;;;5.40;99.90;;;;;;4991123;28;20179;-70
2022/04/08 02:57:47;;;;;;;7.23;1.70;;;5.40;99.90;;;;;;4988529;28;20207;-70
2022/04/08 03:00:15;;;;;;;7.93;1.30;;;5.50;99.90;;;;;;4970583;28;20542;-69
2022/04/08 03:02:41;;;;;;;5.27;1.33;;;5.50;99.90;;;;;;4972037;28;20180;-69
2022/04/08 03:05:07;;;;;;;4.00;1.40;;;5.50;99.90;;;;;;4991413;28;20174;-69
2022/04/08 03:07:34;;;;;;;9.30;1.50;;;5.50;99.90;;;;;;4995002;28;20278;-70
2022/04/08 03:10:00;;;;;;;10.57;1.40;;;5.50;99.90;;;;;;4995144;28;20220;-70
2022/04/08 03:12:26;;;;;;;5.30;1.23;;;5.50;99.90;;;;;;4994968;28;20239;-70
2022/04/08 03:14:51;;;;;;;9.87;1.70;;;5.50;99.90;;;;;;4993722;28;20170;-70
2022/04/08 03:17:17;;;;;;;4.07;1.20;;;5.50;99.90;;;;;;4978628;28;20218;-70
2022/04/08 03:19:43;;;;;;;5.60;1.40;;;5.50;99.90;;;;;;4975531;28;20614;-70
2022/04/08 03:22:09;;;;;;;9.47;1.30;;;5.50;99.90;;;;;;4975426;28;20206;-69
2022/04/08 03:24:34;;;;;;;5.83;1.13;;;5.50;99.90;;;;;;4975104;28;20183;-70
2022/04/08 03:27:00;;;;;;;11.17;1.90;;;5.50;99.90;;;;;;4994204;28;20179;-70
2022/04/08 03:29:26;;;;;;;9.97;1.27;;;5.50;99.90;;;;;;4994715;28;20263;-70
2022/04/08 03:31:52;;;;;;;8.70;1.53;;;5.40;99.90;;;;;;4992599;28;20258;-68
2022/04/08 03:34:17;;;;;;;6.20;1.50;;;5.40;99.90;;;;;;4994437;28;20266;-69
2022/04/08 03:36:45;;;;;;;5.23;1.17;;;5.40;99.90;;;;;;4994547;28;20172;-66
2022/04/08 03:39:11;;;;;;;8.33;1.50;;;5.40;99.90;;;;;;4994146;28;20179;-67
2022/04/08 03:41:37;;;;;;;7.47;1.27;;;5.40;99.90;;;;;;4994397;28;20233;-69
2022/04/08 03:44:03;;;;;;;4.70;1.20;;;5.40;99.90;;;;;;4994366;28;20179;-67
2022/04/08 03:46:28;;;;;;;8.60;1.23;;;5.40;99.90;;;;;;4994207;28;20183;-66
2022/04/08 03:48:54;;;;;;;10.80;1.40;;;5.40;99.90;;;;;;4994340;28;20163;-67
2022/04/08 03:51:20;;;;;;;4.77;1.30;;;5.40;99.90;;;;;;4994176;28;20273;-68
2022/04/08 03:53:46;;;;;;;10.77;1.47;;;5.40;99.90;;;;;;4993879;28;20528;-66
2022/04/08 03:56:11;;;;;;;9.43;1.80;;;5.40;99.90;;;;;;4994130;28;20172;-66
2022/04/08 03:58:37;;;;;;;4.00;1.57;;;5.50;99.90;;;;;;4994048;28;20175;-66
2022/04/08 04:01:03;;;;;;;10.77;1.80;;;5.50;99.90;;;;;;4993893;28;20271;-66
2022/04/08 04:03:29;;;;;;;9.77;1.83;;;5.40;99.90;;;;;;4994035;28;20176;-66
2022/04/08 04:05:54;;;;;;;11.33;1.83;;;5.40;99.90;;;;;;4993970;28;20174;-67
2022/04/08 04:08:20;;;;;;;9.60;1.50;;;5.40;99.90;;;;;;4993997;28;20174;-66
2022/04/08 04:10:47;;;;;;;10.20;1.83;;;5.40;99.90;;;;;;4994092;28;20772;-67
2022/04/08 04:13:13;;;;;;;7.73;1.70;;;5.40;99.90;;;;;;4993789;28;20250;-66
2022/04/08 04:15:39;;;;;;;8.23;1.83;;;5.40;99.90;;;;;;4992519;28;20183;-66
2022/04/08 04:18:05;;;;;;;9.17;1.60;;;5.40;99.90;;;;;;4993954;28;20638;-66
2022/04/08 04:20:31;;;;;;;7.23;1.73;;;5.40;99.90;;;;;;4993630;28;20175;-66
2022/04/08 04:22:57;;;;;;;9.40;2.03;;;5.40;99.90;;;;;;4993788;28;20180;-66
2022/04/08 04:25:23;;;;;;;7.97;1.87;;;5.40;99.90;;;;;;4993519;28;20250;-67
2022/04/08 04:27:48;;;;;;;8.20;1.93;;;5.40;99.90;;;;;;4993596;28;20187;-66
2022/04/08 04:30:14;;;;;;;8.17;1.60;;;5.40;99.90;;;;;;4993447;28;20175;-69
2022/04/08 04:32:40;;;;;;;16.87;2.40;;;5.40;99.90;;;;;;4993358;28;20588;-69
2022/04/08 04:35:07;;;;;;;10.80;2.00;;;5.30;99.90;;;;;;4991961;28;20223;-69
2022/04/08 04:37:37;;;;;;;8.30;2.37;;;5.30;99.90;;;;;;4993494;28;20191;-69
2022/04/08 04:40:04;;;;;;;11.33;2.00;;;5.30;99.90;;;;;;4993237;28;20175;-70
2022/04/08 04:42:30;;;;;;;9.80;1.60;;;5.40;99.90;;;;;;4993111;28;20176;-69
2022/04/08 04:44:56;;;;;;;10.33;1.73;;;5.30;99.90;;;;;;4993362;28;20249;-70
2022/04/08 04:47:23;;;;;;;7.03;1.83;;;5.30;99.90;;;;;;4993240;28;20259;-70
2022/04/08 04:49:49;;;;;;;9.63;1.83;;;5.30;99.90;;;;;;4993186;28;20218;-69
2022/04/08 04:52:15;;;;;;;6.03;1.60;;;5.30;99.90;;;;;;4993062;28;20210;-69
2022/04/08 04:54:41;;;;;;;8.37;2.10;;;5.30;99.90;;;;;;4992811;28;20258;-68
2022/04/08 04:57:07;;;;;;;20.53;2.50;;;5.30;99.90;;;;;;4993012;28;20270;-68
2022/04/08 04:59:34;;;;;;;11.87;1.90;;;5.30;99.90;;;;;;4992960;28;20262;-69
2022/04/08 05:02:00;;;;;;;11.90;1.83;;;5.40;99.90;;;;;;4993047;28;20175;-69
2022/04/08 05:04:26;;;;;;;5.27;2.00;;;5.30;99.90;;;;;;4992894;28;20206;-70
2022/04/08 05:06:51;;;;;;;17.47;2.20;;;5.40;99.90;;;;;;4992814;28;20167;-68
2022/04/08 05:09:17;;;;;;;6.37;2.23;;;5.30;99.90;;;;;;4992756;28;20225;-70
2022/04/08 05:11:43;;;;;;;15.37;2.10;;;5.30;99.90;;;;;;4992726;28;20286;-69
2022/04/08 05:14:09;;;;;;;5.83;1.80;;;5.30;99.90;;;;;;4991271;28;20587;-69
2022/04/08 05:16:35;;;;;;;11.90;2.30;;;5.40;99.90;;;;;;4992580;28;20176;-68
2022/04/08 05:19:00;;;;;;;4.87;2.10;;;5.40;99.90;;;;;;4992317;28;20195;-69
2022/04/08 05:21:29;;;;;;;7.37;1.87;;;5.40;99.90;;;;;;4992650;28;20191;-70
2022/04/08 05:23:55;;;;;;;10.43;2.20;;;5.30;99.90;;;;;;4992392;28;20174;-71
2022/04/08 05:26:21;;;;;;;7.17;1.90;;;5.30;99.90;;;;;;4972925;28;20183;-69
2022/04/08 05:28:47;;;;;;;10.20;2.00;;;5.40;99.90;;;;;;4972988;28;20179;-66
2022/04/08 05:31:13;;;;;;;8.17;1.97;;;5.30;99.90;;;;;;4972976;28;20176;-61
2022/04/08 05:33:39;;;;;;;6.60;1.80;;;5.30;99.90;;;;;;4973097;28;20187;-69
2022/04/08 05:36:06;;;;;;;3.87;1.87;;;5.30;99.90;;;;;;4971598;28;20411;-66
2022/04/08 05:38:31;;;;;;;9.63;1.80;;;5.30;99.90;;;;;;4972967;28;20206;-65
2022/04/08 05:40:57;;;;;;;10.73;1.90;;;5.20;99.90;;;;;;4972789;28;20635;-66
2022/04/08 05:43:23;;;;;;;11.97;2.10;;;5.20;99.90;;;;;;4989192;28;20185;-66
2022/04/08 05:45:49;;;;;;;8.77;1.83;;;5.20;99.90;;;;;;4980304;28;20661;-65
2022/04/08 05:48:14;;;;;;;7.70;2.00;;;5.20;99.90;;;;;;4990374;28;20217;-67
2022/04/08 05:50:40;;;;;;;19.47;2.43;;;5.20;99.90;;;;;;4992043;28;20253;-65
2022/04/08 05:53:06;;;;;;;6.90;2.13;;;5.10;99.90;;;;;;4991983;28;20299;-64
2022/04/08 05:55:32;;;;;;;15.77;2.53;;;5.10;99.90;;;;;;4991953;28;20661;-66
2022/04/08 05:57:57;;;;;;;7.83;1.93;;;5.10;99.90;;;;;;4992088;28;21005;-67
2022/04/08 06:00:24;;;;;;;13.10;2.00;;;5.10;99.90;;;;;;4990727;28;20171;-67
2022/04/08 06:02:50;;;;;;;8.03;1.77;;;5.20;99.90;;;;;;4992171;28;20179;-67
2022/04/08 06:05:18;;;;;;;11.57;2.30;;;5.20;99.90;;;;;;4992115;28;20258;-67
2022/04/08 06:07:49;;;;;;;8.47;2.33;;;5.20;99.90;;;;;;4991180;28;20167;-65
2022/04/08 06:10:26;;;;;;;16.67;2.47;;;5.20;99.90;;;;;;4991917;28;20183;-67
2022/04/08 06:12:53;;;;;;;5.47;2.07;;;5.20;99.90;;;;;;4991358;28;20301;-68
2022/04/08 06:15:19;;;;;;;14.30;2.63;;;5.20;99.90;;;;;;4991752;28;20650;-67
2022/04/08 06:17:46;;;;;;;9.57;2.00;;;5.30;99.90;;;;;;4990124;28;20167;-70
2022/04/08 06:20:16;;;;;;;8.77;2.57;;;5.30;99.90;;;;;;4990723;28;20225;-69
2022/04/08 06:22:42;;;;;;;7.80;2.50;;;5.40;99.90;;;;;;4981262;28;20179;-69
2022/04/08 06:25:10;;;;;;;15.07;2.73;;;5.40;99.90;;;;;;4991479;28;20179;-69
2022/04/08 06:27:42;;;;;;;5.97;2.30;;;5.50;99.90;;;;;;4991618;28;20193;-69
2022/04/08 06:30:10;;;;;;;10.57;2.20;;;5.60;99.90;;;;;;4990992;28;20226;-68
2022/04/08 06:32:39;;;;;;;13.03;2.30;;;5.70;99.90;;;;;;4990556;28;20301;-67
2022/04/08 06:35:05;;;;;;;10.07;2.60;;;5.70;99.90;;;;;;4991355;28;20295;-67
2022/04/08 06:37:31;;;;;;;10.07;2.40;;;5.80;99.90;;;;;;4991252;28;20183;-67
2022/04/08 06:40:03;;;;;;;8.33;2.63;;;5.80;99.90;;;;;;4995517;28;20222;-63
2022/04/08 06:42:28;;;;;;;17.03;2.70;;;5.90;99.90;;;;;;4995462;28;20167;-63
2022/04/08 06:44:54;;;;;;;9.07;2.67;;;6.00;99.90;;;;;;4995434;28;20693;-63
2022/04/08 06:47:20;;;;;;;12.20;2.90;;;6.00;99.90;;;;;;4991492;28;20718;-62
2022/04/08 06:49:46;;;;;;;16.93;2.70;;;6.00;99.90;;;;;;4994863;28;20180;-65
2022/04/08 06:52:13;;;;;;;8.40;2.30;;;6.10;99.90;;;;;;4994842;28;20213;-62
2022/04/08 06:54:39;;;;;;;14.57;2.80;;;6.10;99.90;;;;;;4994877;28;20172;-61
2022/04/08 06:57:05;;;;;;;11.97;2.40;;;6.20;99.90;;;;;;4995228;28;20176;-62
2022/04/08 06:59:31;;;;;;;7.87;2.40;;;6.20;99.90;;;;;;4995176;28;20175;-62
2022/04/08 07:01:56;;;;;;;10.63;2.67;;;6.20;99.90;;;;;;4993714;28;20249;-61
2022/04/08 07:04:22;;;;;;;8.20;2.47;;;6.20;99.90;;;;;;4994922;28;20186;-63
2022/04/08 07:06:48;;;;;;;12.43;2.30;;;6.30;99.90;;;;;;4994721;28;20183;-62
2022/04/08 07:09:14;;;;;;;7.43;2.87;;;6.30;99.90;;;;;;4994960;28;20177;-61
2022/04/08 07:11:39;;;;;;;12.90;2.57;;;6.40;99.90;;;;;;4994649;28;20237;-61
2022/04/08 07:14:05;;;;;;;15.00;3.23;;;6.40;99.90;;;;;;4993578;28;20241;-62
2022/04/08 07:16:31;;;;;;;8.07;2.50;;;6.40;99.90;;;;;;4994997;28;20171;-62
2022/04/08 07:18:57;;;;;;;14.07;2.70;;;6.50;99.90;;;;;;4994756;28;20183;-62
2022/04/08 07:21:23;;;;;;;7.50;2.40;;;6.60;99.90;;;;;;4994718;28;20159;-62
2022/04/08 07:23:49;;;;;;;10.73;2.40;;;6.70;99.90;;;;;;4993439;28;20179;-63
2022/04/08 07:26:15;;;;;;;5.83;2.70;;;6.80;99.90;;;;;;4994620;28;20175;-60
2022/04/08 07:28:41;;;;;;;16.77;2.40;;;6.80;99.90;;;;;;4994553;28;20175;-62
2022/04/08 07:31:07;;;;;;;6.90;2.10;;;6.90;99.90;;;;;;4993796;28;20250;-63
2022/04/08 07:33:33;;;;;;;14.43;2.37;;;6.90;99.90;;;;;;4994331;28;20211;-62
2022/04/08 07:35:59;;;;;;;15.60;2.60;;;7.00;99.90;;;;;;4994447;28;20218;-62
2022/04/08 07:38:25;;;;;;;13.03;2.50;;;7.00;99.90;;;;;;4994487;28;20202;-61
2022/04/08 07:40:51;;;;;;;11.80;2.50;;;7.10;99.90;;;;;;4994452;28;20217;-61
2022/04/08 07:43:17;;;;;;;7.27;2.23;;;7.10;99.90;;;;;;4992943;28;20582;-66
2022/04/08 07:45:43;;;;;;;14.27;2.40;;;7.20;99.90;;;;;;4994105;28;20563;-64
2022/04/08 07:48:09;;;;;;;9.80;2.57;;;7.30;99.90;;;;;;4990960;28;20512;-58
2022/04/08 07:50:37;;;;;;;9.33;2.37;;;7.40;99.90;;;;;;4983102;28;20183;-59
2022/04/08 07:53:04;;;;;;;8.90;2.10;;;7.50;99.90;;;;;;4993882;28;20214;-58
2022/04/08 07:55:30;;;;;;;7.97;2.00;;;7.60;99.90;;;;;;4977938;28;20183;-58
2022/04/08 07:57:56;;;;;;;12.67;1.90;;;7.70;99.90;;;;;;4986873;28;20209;-59
2022/04/08 08:00:26;;;;;;;8.27;2.20;;;7.70;99.90;;;;;;4993453;28;20622;-59
2022/04/08 08:02:53;;;;;;;12.43;2.20;;;7.90;99.90;;;;;;4993943;28;20172;-61
2022/04/08 08:05:22;;;;;;;10.83;2.57;;;7.80;99.90;;;;;;4993868;28;20217;-57
2022/04/08 08:07:53;;;;;;;18.80;2.40;;;7.90;99.90;;;;;;4992939;28;20182;-58
2022/04/08 08:10:21;;;;;;;9.47;1.97;;;8.00;99.90;;;;;;4993771;28;20172;-64
2022/04/08 08:12:47;;;;;;;5.93;1.80;;;8.30;99.90;;;;;;4993542;28;20219;-57
2022/04/08 08:15:15;;;;;;;9.17;1.70;;;8.40;99.90;;;;;;4985870;28;20198;-58
2022/04/08 08:17:41;;;;;;;7.87;1.67;;;8.40;99.90;;;;;;4987761;28;20274;-57
2022/04/08 08:20:08;;;;;;;6.37;2.10;;;8.50;99.90;;;;;;4993614;28;20163;-58
2022/04/08 08:22:35;;;;;;;9.07;2.00;;;8.60;99.90;;;;;;4993423;28;20183;-57
2022/04/08 08:25:01;;;;;;;12.87;1.87;;;8.70;99.90;;;;;;4988003;28;20187;-57
2022/04/08 08:27:27;;;;;;;8.23;2.00;;;8.80;99.90;;;;;;4991675;28;20201;-59
2022/04/08 08:29:53;;;;;;;7.20;1.70;;;8.90;99.90;;;;;;4993163;28;20637;-56
2022/04/08 08:32:19;;;;;;;7.20;1.80;;;9.00;99.90;;;;;;4993388;28;20207;-56
2022/04/08 08:34:45;;;;;;;13.53;1.93;;;9.20;99.90;;;;;;4993272;28;20681;-56
2022/04/08 08:37:10;;;;;;;11.83;2.33;;;9.40;99.90;;;;;;4993389;28;20179;-56
2022/04/08 08:39:36;;;;;;;8.40;2.00;;;9.40;99.90;;;;;;4993007;28;20214;-56
2022/04/08 08:42:03;;;;;;;12.73;2.23;;;9.30;99.90;;;;;;4993130;28;20176;-57
2022/04/08 08:44:29;;;;;;;11.87;2.20;;;9.20;99.90;;;;;;4993427;28;20202;-56
2022/04/08 08:47:00;;;;;;;10.33;1.63;;;9.40;99.90;;;;;;4989855;28;20179;-56
2022/04/08 08:49:29;;;;;;;17.47;2.83;;;9.40;99.90;;;;;;4986658;28;20191;-56
2022/04/08 08:51:58;;;;;;;6.90;1.53;;;9.60;99.90;;;;;;4992750;28;20214;-56
2022/04/08 08:54:24;;;;;;;13.57;1.80;;;9.60;99.90;;;;;;4989924;28;20179;-56
2022/04/08 08:56:50;;;;;;;10.00;1.87;;;9.60;99.90;;;;;;4981591;28;20529;-56
2022/04/08 08:59:16;;;;;;;9.43;2.10;;;9.80;99.90;;;;;;4985237;28;20188;-56
2022/04/08 09:01:42;;;;;;;11.67;2.37;;;10.00;99.90;;;;;;4989768;28;20187;-56
2022/04/08 09:04:08;;;;;;;14.30;2.37;;;10.40;99.90;;;;;;4992362;28;20202;-56
2022/04/08 09:06:41;;;;;;;8.50;2.43;;;10.10;99.90;;;;;;4992746;28;20255;-56
2022/04/08 09:09:06;;;;;;;9.30;2.20;;;10.50;99.90;;;;;;4991904;28;20202;-56
2022/04/08 09:11:32;;;;;;;9.40;2.37;;;10.80;99.90;;;;;;4992612;28;20211;-56
2022/04/08 09:14:03;;;;;;;9.13;2.00;;;10.70;99.90;;;;;;4992588;28;20596;-56
2022/04/08 09:16:30;;;;;;;9.43;2.87;;;11.10;99.90;;;;;;4992538;28;20171;-54
2022/04/08 09:18:56;;;;;;;6.00;2.13;;;11.60;99.90;;;;;;4992455;28;20198;-54
2022/04/08 09:21:23;;;;;;;8.80;2.20;;;11.80;99.90;;;;;;4992446;28;20673;-54
2022/04/08 09:23:50;;;;;;;12.17;2.40;;;13.20;99.90;;;;;;4992181;28;20199;-54
2022/04/08 09:26:15;;;;;;;9.65;2.38;;;13.20;99.90;;;;;;4992418;28;20182;-54
2022/04/08 09:28:42;;;;;;;14.07;2.67;;;12.40;99.90;;;;;;4991335;28;20183;-54
2022/04/08 09:31:19;;;;;;;8.60;2.33;;;12.20;99.90;;;;;;4988643;28;20167;-54
2022/04/08 09:33:54;;;;;;;11.55;2.90;;;13.20;99.90;;;;;;4992114;28;20210;-54
2022/04/08 09:36:28;;;;;;;8.55;2.63;;;12.80;99.90;;;;;;4992136;28;20597;-54
2022/04/08 09:38:54;;;;;;;8.23;2.40;;;12.00;99.90;;;;;;4992165;28;20266;-54
2022/04/08 09:41:19;;;;;;;7.95;2.80;;;11.80;99.90;;;;;;4992070;28;20214;-54
2022/04/08 09:43:45;;;;;;;9.18;2.47;;;11.90;99.90;;;;;;4990995;28;20198;-55
2022/04/08 09:46:21;;;;;;;8.98;2.50;;;12.10;99.90;;;;;;4989943;28;20178;-55
2022/04/08 09:48:48;;;;;;;6.50;2.17;;;14.20;99.90;;;;;;4991276;28;20218;-56
2022/04/08 09:51:23;;;;;;;11.05;2.58;;;15.80;99.90;;;;;;4991962;28;20202;-56
2022/04/08 09:54:00;;;;;;;11.70;2.80;;;15.50;99.90;;;;;;4991644;28;20214;-54
2022/04/08 09:56:27;;;;;;;11.02;2.60;;;14.60;99.90;;;;;;4991772;28;20677;-57
2022/04/08 09:59:13;;;;;;;11.43;2.35;;;14.40;99.90;;;;;;4991573;28;20249;-56
2022/04/08 10:01:40;;;;;;;8.93;2.33;;;14.30;99.90;;;;;;4991149;28;20198;-56
2022/04/08 10:04:08;;;;;;;9.70;2.80;;;13.80;99.90;;;;;;4991481;28;20581;-57
2022/04/08 10:06:35;;;;;;;12.55;2.55;;;13.50;99.90;;;;;;4991739;28;20198;-55
2022/04/08 10:09:03;;;;;;;9.85;2.15;;;13.80;99.90;;;;;;4991969;28;20183;-56
2022/04/08 10:11:57;;;;;;;8.95;2.72;;;14.70;99.90;;;;;;4991453;28;20278;-56
2022/04/08 10:14:35;;;;;;;9.70;2.58;;;15.90;99.90;;;;;;4991567;28;20187;-56
2022/04/08 10:17:02;;;;;;;7.65;2.90;;;15.90;99.90;;;;;;4991605;28;20229;-56
2022/04/08 10:19:29;;;;;;;9.93;2.63;;;16.60;99.90;;;;;;4991551;28;20171;-56
2022/04/08 10:21:59;;;;;;;7.13;2.65;;;17.00;99.90;;;;;;4991229;28;20170;-54
2022/04/08 10:24:30;;;;;;;11.50;2.53;;;17.00;99.90;;;;;;4991128;28;20206;-55
2022/04/08 10:27:03;;;;;;;10.77;2.70;;;17.00;99.90;;;;;;4991287;28;20217;-55
2022/04/08 10:29:31;;;;;;;8.05;2.42;;;14.80;99.90;;;;;;4991559;28;20613;-56
2022/04/08 10:32:00;;;;;;;8.70;2.97;;;14.70;99.90;;;;;;4991263;28;20206;-55
2022/04/08 10:34:26;;;;;;;8.35;2.35;;;14.70;99.90;;;;;;4991100;28;20285;-56
2022/04/08 10:36:52;;;;;;;10.25;2.47;;;15.20;99.90;;;;;;4991296;28;20262;-55
2022/04/08 10:39:20;;;;;;;8.15;2.42;;;15.50;99.90;;;;;;4991325;28;20266;-55
2022/04/08 10:41:52;;;;;;;12.68;2.53;;;15.10;99.90;;;;;;4991627;28;20274;-55
2022/04/08 10:44:31;;;;;;;5.03;1.90;;;14.60;99.90;;;;;;4989961;28;20167;-55
2022/04/08 10:47:00;;;;;;;6.63;1.85;;;13.50;99.90;;;;;;4989273;28;20179;-54
2022/04/08 10:49:26;;;;;;;5.35;1.88;;;13.90;99.90;;;;;;4989236;28;20237;-55
2022/04/08 10:51:52;;;;;;;6.97;1.80;;;14.20;99.90;;;;;;4989418;28;20207;-56
2022/04/08 10:54:20;;;;;;;6.85;1.90;;;14.00;99.90;;;;;;4989117;28;20171;-54
2022/04/08 10:56:58;;;;;;;6.43;2.00;;;13.50;99.90;;;;;;4989280;28;20186;-55
2022/04/08 10:59:28;;;;;;;8.27;1.95;;;13.50;99.90;;;;;;4990888;28;20171;-55
2022/04/08 11:02:05;;;;;;;7.60;2.13;;;14.30;99.90;;;;;;4991167;28;20179;-55
2022/04/08 11:04:31;;;;;;;7.20;2.03;;;15.20;99.90;;;;;;4991088;28;20164;-56
2022/04/08 11:07:05;;;;;;;5.30;1.70;;;15.00;99.90;;;;;;4991156;28;20484;-55
2022/04/08 11:09:31;;;;;;;9.98;1.60;;;15.20;99.90;;;;;;4991211;28;20183;-55
2022/04/08 11:11:57;;;;;;;9.00;1.58;;;15.20;99.90;;;;;;4991168;28;20207;-54
2022/04/08 11:14:23;;;;;;;6.28;1.45;;;16.10;99.90;;;;;;4991689;28;20179;-56
2022/04/08 11:16:50;;;;;;;9.18;1.80;;;15.80;99.90;;;;;;4991184;28;20163;-56
2022/04/08 11:19:16;;;;;;;9.63;1.67;;;15.60;99.90;;;;;;4991229;28;20419;-55
2022/04/08 11:21:42;;;;;;;7.78;1.80;;;16.50;99.90;;;;;;4991065;28;20176;-55
2022/04/08 11:24:22;;;;;;;6.57;1.90;;;17.10;99.90;;;;;;4992202;28;20176;-56
2022/04/08 11:26:52;;;;;;;5.78;1.23;;;17.20;99.90;;;;;;4995056;28;20219;-55
2022/04/08 11:29:23;;;;;;;7.38;1.70;;;16.70;99.90;;;;;;4994691;28;20222;-56
2022/04/08 11:31:51;;;;;;;7.63;1.67;;;16.20;99.90;;;;;;4994748;28;20199;-56
2022/04/08 11:34:18;;;;;;;10.75;1.77;;;16.50;99.90;;;;;;4994348;28;20222;-56
2022/04/08 11:36:44;;;;;;;7.13;1.65;;;16.50;99.90;;;;;;4994557;28;20217;-56
2022/04/08 11:39:19;;;;;;;5.75;1.80;;;15.80;99.90;;;;;;4994358;28;20285;-55
2022/04/08 11:42:04;;;;;;;6.43;1.73;;;17.00;99.90;;;;;;4994689;28;20178;-56
2022/04/08 11:44:30;;;;;;;11.15;2.00;;;15.60;99.90;;;;;;4975937;28;20167;-56
2022/04/08 11:47:07;;;;;;;7.65;1.65;;;16.00;99.90;;;;;;4974948;28;20215;-55
2022/04/08 11:49:33;;;;;;;9.45;1.83;;;16.20;99.90;;;;;;4974716;28;20171;-56
2022/04/08 11:52:06;;;;;;;7.65;1.55;;;15.90;99.90;;;;;;4974734;28;20720;-56
2022/04/08 11:54:40;;;;;;;7.63;1.95;;;15.50;99.90;;;;;;4973531;28;20632;-54
2022/04/08 11:57:07;;;;;;;10.40;1.88;;;14.60;99.90;;;;;;4974863;28;20376;-55
2022/04/08 11:59:34;;;;;;;8.15;1.88;;;14.10;99.90;;;;;;4974796;28;20639;-55
2022/04/08 12:02:00;;;;;;;8.40;1.67;;;14.10;99.90;;;;;;4974668;28;20186;-56
2022/04/08 12:04:26;;;;;;;5.05;1.67;;;14.40;99.90;;;;;;4974504;28;20183;-55
2022/04/08 12:06:52;;;;;;;5.18;1.65;;;14.70;99.90;;;;;;4974660;28;20176;-55
2022/04/08 12:09:22;;;;;;;6.25;1.30;;;15.10;99.90;;;;;;4974581;28;20661;-55
2022/04/08 12:11:48;;;;;;;6.93;1.95;;;15.90;99.90;;;;;;4974289;28;20658;-55
2022/04/08 12:14:14;;;;;;;5.25;1.50;;;16.40;99.90;;;;;;4974459;28;20198;-55
2022/04/08 12:16:41;;;;;;;6.93;1.30;;;16.40;99.90;;;;;;4974155;28;20179;-55
2022/04/08 12:19:09;;;;;;;6.32;1.65;;;17.10;99.90;;;;;;4974238;28;20180;-55
2022/04/08 12:21:39;;;;;;;4.70;1.52;;;17.40;99.90;;;;;;4974081;28;20651;-55
2022/04/08 12:24:07;;;;;;;10.80;1.85;;;16.90;99.90;;;;;;4982077;28;20661;-55
2022/04/08 12:26:36;;;;;;;9.00;2.10;;;15.90;99.90;;;;;;4992857;28;20179;-55
2022/04/08 12:29:13;;;;;;;12.70;2.17;;;15.30;99.90;;;;;;4993120;28;20187;-55
2022/04/08 12:31:50;;;;;;;8.13;1.70;;;15.60;99.90;;;;;;4993391;28;20175;-55
2022/04/08 12:34:17;;;;;;;5.28;1.38;;;17.20;99.90;;;;;;4993323;28;20709;-56
2022/04/08 12:36:44;;;;;;;5.50;1.60;;;18.30;99.90;;;;;;4991617;28;20238;-56
2022/04/08 12:39:11;;;;;;;10.85;2.13;;;19.70;99.90;;;;;;4993077;28;20258;-56
2022/04/08 12:41:47;;;;;;;6.43;1.95;;;19.70;99.90;;;;;;4992880;28;20182;-56
2022/04/08 12:44:13;;;;;;;7.53;1.85;;;20.40;99.90;;;;;;4992264;28;20194;-56
2022/04/08 12:46:39;;;;;;;6.00;1.80;;;20.20;99.90;;;;;;4993450;28;20190;-56
2022/04/08 12:49:06;;;;;;;5.60;1.50;;;20.70;99.90;;;;;;4993118;28;20634;-56
2022/04/08 12:51:33;;;;;;;4.72;1.85;;;19.90;99.90;;;;;;4993088;28;20177;-56